Flight Track Log - Related Links

Times and Time Zones

All times are in EDT time to prevent confusion due to time zone crossing. See the N674AS flight status page for this flight to view local times or setup timezone preferences in your user account.

Time Position Orientation Groundspeed Altitude Reporting Facility
EDT Latitude Longitude Course Direction KTS MPH feet Rate Location/Type
Mon 08:48:07 AM 41.9000 -88.3333 236° Southwest 274 315 3,000  Level Chicago TRACON
Mon 08:49:07 AM 41.8333 -88.3667 200° South 272 313 3,700 2,400 Climbing Chicago TRACON
Mon 08:50:07 AM 41.7500 -88.3667 180° South 306 352 7,800 4,200 Climbing Chicago TRACON
Mon 08:51:07 AM 41.7667 -88.3000 71° East 253 291 12,100 2,600 Climbing Chicago TRACON
Mon 08:52:07 AM 41.8333 -88.2667 20° North 294 338 13,000 450 Climbing Chicago TRACON
Mon 08:53:07 AM 41.8333 -88.1500 90° East 304 350 13,000 350 Level Chicago TRACON
Mon 08:54:07 AM 41.8333 -88.0333 90° East 294 338 13,700 845 Climbing Chicago TRACON
Mon 08:55:29 AM 41.8378 -87.8911 88° East 314 361 15,000 542 Climbing Chicago Center
Mon 08:56:31 AM 41.8394 -87.7700 89° East 324 373 15,000  Level Chicago Center
Mon 08:57:33 AM 41.8311 -87.6483 95° East 326 375 15,000  Level Chicago Center
Mon 08:58:35 AM 41.8228 -87.5011 94° East 331 381 15,000  Level Chicago Center
Mon 08:59:36 AM 41.8150 -87.3792 95° East 330 380 15,000  Level Chicago Center
Mon 09:00:38 AM 41.8072 -87.2572 95° East 328 377 15,000  Level Chicago Center
Mon 09:01:40 AM 41.7989 -87.1372 95° East 326 375 15,000  Level Chicago Center
Mon 09:02:42 AM 41.7906 -87.0169 95° East 324 373 15,000  Level Chicago Center
Mon 09:03:44 AM 41.7828 -86.8992 95° East 320 368 15,000 -97 Level Chicago Center
Mon 09:04:46 AM 41.7739 -86.7583 95° East 318 366 14,800 -532 Descending Chicago Center
Mon 09:05:48 AM 41.7667 -86.6544 95° East 321 369 13,900 -871 Descending Chicago Center
Mon 09:06:50 AM 41.7589 -86.5378 95° East 316 364 13,000 -1,161 Descending Chicago Center
Mon 09:07:52 AM 41.7486 -86.4025 96° East 304 350 11,500 -1,500 Descending Chicago Center
Mon 09:08:54 AM 41.7397 -86.2892 96° East 305 351 9,900 -2,032 Descending Chicago Center
Mon 09:09:56 AM 41.7331 -86.1944 95° East 259 298 7,300 -2,952 Descending Chicago Center
Mon 09:10:58 AM 41.7264 -86.1117 96° East 226 260 3,800 -2,323 Descending Chicago Center
Mon 09:12:00 AM 41.7042 -86.0519 116° Southeast 206 237 2,500 -780 Descending Chicago Center
Mon 09:13:01 AM 41.6833 -86.0894 233° Southwest 178 205 2,200 -390 Descending Chicago Center
Mon 09:14:03 AM 41.7183 -86.0692 23° Northeast 146 168 1,700 -532 Descending Chicago Center
Mon 09:15:05 AM 41.7206 -86.0344 85° East 131 151 1,100 -581 Descending Chicago Center
Mon 09:17:00 AM 41.7167 -86.0000 62° Northeast  Level FlightAware Approximate

Login

Don't have an account? Register now (free) for customized features, flight alerts, and more!